עמוד ראשי
METAR-TAF:

METAR-TAF

שדות תעופה :

גלאזגו, סקוטלנד

קו רוחב: 55-52N, קו אורך: 004-26W, גובה: 8מטר

תצפית מזג אוויר נוכחית

הדו"ח נערך לפני 48דקות, בשעה 13:20 UTC
רוח 8קשר מכיוון מזרח/צפון-מזרח, משתנה בין צפון/צפון-מזרח ו מזרח/דרום-מזרח
טמפרטורת 17 צלסיוס
לחות 77%
לחץ 1018 hPa
ראות 10 קילומטר או יותר
עננים בינוניים בגובה 1800רגל

METAR: EGPF 191320Z 07008KT 020V110 9999 BKN018 17/13 Q1018

זמן: 15:08 (14:08 UTC)

תחזית

הדו"ח נערך לפני 3 שעות ו 10דקות, בשעה 10:58 UTC
תחזית בתוקף מ 19 ב 12 UTC עד 20 ב 12 UTC
רוח 7קשר מכיוון מזרח
ראות 10 קילומטר או יותר
מעט עננים בגובה 1500רגל
עננים פזורים בגובה 3000רגל
זמנית מ -
19 ב 12 UTC עד 19 ב 16 UTC
ראות: 7000מטר
הסתברות 40% :
זמנית מ -
19 ב 12 UTC עד 19 ב 14 UTC
עננים בינוניים בגובה 1200רגל
הסתברות 40% :
זמנית מ -
19 ב 22 UTC עד 20 ב 09 UTC
עננים בינוניים בגובה 1000רגל

TAF: EGPF 191058Z 1912/2012 08007KT 9999 FEW015 SCT030 TEMPO 1912/1916 7000 PROB40 TEMPO 1912/1914 BKN012 PROB40 TEMPO 1922/2009 BKN010

תצפיות ותחזיות מזג אוויר לגבי יותר מ- 4,000 שדות תעופה ברחבי העולם. דוחות METAR ו- TAF.

התחנות הזמינות מסומנות בנקודות צהובות ואדומות על גבי המפה.

העבר את העכבר לנקודה הצבעונית על מנת לראות את שם התחנה.

לאחר מכן, לחץ כדי לראות את תוכן ואת תחזיות מזג האוויר.

כדי לשנות את המפה: לחץ על הכפתורים הירוקים עם הפלוס השחור כדי להתקרב; על הכפתור הירוק עם המקף כדי להתרחק; או בחיצים הירוקים למפות סמוכות.


METAR-TAF: